Time;durP1;ratioP1;P1;durP2;ratioP2;P2;SDS_P1;SDS_P2;PMS_P1;PMS_P2;Temp;Humidity;BMP_temperature;BMP_pressure;BME280_temperature;BME280_humidity;BME280_pressure;Samples;Min_cycle;Max_cycle;Signal;HPM_P1;HPM_P2
2023/12/13 00:02:15;;;;;;;1.13;0.30;;;;;;;7.69;88.87;98923.63;4989096;28;20110;-88
2023/12/13 00:04:43;;;;;;;1.33;0.50;;;;;;;7.69;88.89;98926.25;4994747;28;20530;-88
2023/12/13 00:07:10;;;;;;;2.20;0.30;;;;;;;7.70;88.85;98939.25;4976151;28;20519;-89
2023/12/13 00:09:38;;;;;;;3.50;0.32;;;;;;;7.76;87.76;98927.78;4998343;28;20137;-88
2023/12/13 00:12:05;;;;;;;3.40;0.60;;;;;;;7.87;86.76;98930.97;4995820;28;20050;-88
2023/12/13 00:14:31;;;;;;;2.03;0.30;;;;;;;7.99;85.83;98933.25;4973505;28;20060;-89
2023/12/13 00:16:58;;;;;;;0.55;0.38;;;;;;;8.09;85.29;98931.19;4998834;28;20044;-88
2023/12/13 00:19:25;;;;;;;2.22;0.43;;;;;;;7.91;86.08;98931.75;4987888;28;20131;-88
2023/12/13 00:21:52;;;;;;;1.63;0.20;;;;;;;7.90;85.76;98925.63;4974154;28;20038;-88
2023/12/13 00:24:19;;;;;;;1.25;0.20;;;;;;;7.85;85.72;98932.78;4962428;28;20046;-88
2023/12/13 00:26:49;;;;;;;2.15;0.40;;;;;;;7.87;85.28;98930.97;4994360;28;20049;-89
2023/12/13 00:29:16;;;;;;;1.45;0.30;;;;;;;7.88;85.58;98921.34;4975373;28;20050;-89
2023/12/13 00:31:43;;;;;;;3.60;0.40;;;;;;;8.06;84.36;98904.31;4988950;28;20070;-88
2023/12/13 00:34:10;;;;;;;0.90;0.20;;;;;;;8.08;83.56;98921.66;4979967;28;20077;-88
2023/12/13 00:36:37;;;;;;;0.35;0.20;;;;;;;8.08;83.66;98911.22;4978313;28;20045;-88
2023/12/13 00:39:05;;;;;;;0.28;0.10;;;;;;;8.13;82.71;98916.28;4990292;28;20054;-88
2023/12/13 00:41:32;;;;;;;2.28;0.20;;;;;;;8.23;82.26;98911.66;4986203;28;20049;-87
2023/12/13 00:43:59;;;;;;;0.88;0.20;;;;;;;8.25;81.96;98910.69;4996099;28;20046;-89
2023/12/13 00:46:26;;;;;;;1.55;0.22;;;;;;;8.20;82.45;98910.00;4990118;28;20050;-89
2023/12/13 00:48:53;;;;;;;0.65;0.20;;;;;;;8.10;83.54;98916.41;5006385;28;20046;-88
2023/12/13 00:51:22;;;;;;;1.95;0.20;;;;;;;8.11;83.12;98916.34;4994035;28;20072;-87
2023/12/13 00:53:49;;;;;;;1.27;0.15;;;;;;;8.31;81.66;98918.38;4987278;28;20205;-88
2023/12/13 00:56:16;;;;;;;0.45;0.10;;;;;;;8.17;82.63;98915.31;4986427;28;20077;-88
2023/12/13 00:58:45;;;;;;;1.38;0.20;;;;;;;8.06;83.13;98918.22;4992853;28;20080;-88
2023/12/13 01:01:12;;;;;;;3.70;0.28;;;;;;;8.04;82.58;98917.44;4992915;28;20049;-88
2023/12/13 01:03:39;;;;;;;1.83;0.40;;;;;;;8.16;81.56;98905.75;4999426;28;20064;-88
2023/12/13 01:06:09;;;;;;;1.40;0.10;;;;;;;8.20;80.71;98912.59;4984864;28;20069;-90
2023/12/13 01:08:38;;;;;;;1.20;0.10;;;;;;;8.14;81.31;98915.38;4992225;28;20046;-88
2023/12/13 01:11:09;;;;;;;2.33;0.20;;;;;;;7.99;81.96;98914.94;4976945;28;20057;-88
2023/12/13 01:13:37;;;;;;;1.85;0.20;;;;;;;7.96;81.93;98917.63;4983628;28;20046;-88
2023/12/13 01:16:04;;;;;;;0.40;0.13;;;;;;;8.03;81.32;98926.16;5009855;28;20073;-88
2023/12/13 01:18:31;;;;;;;1.83;0.30;;;;;;;8.13;81.03;98924.13;4994664;28;20130;-87
2023/12/13 01:20:58;;;;;;;1.08;0.30;;;;;;;8.08;81.54;98912.94;4991672;28;20049;-86
2023/12/13 01:23:27;;;;;;;0.43;0.10;;;;;;;8.22;80.88;98926.47;4979837;28;20042;-85
2023/12/13 01:25:54;;;;;;;1.17;0.20;;;;;;;8.26;80.76;98922.88;4990025;28;20042;-87
2023/12/13 01:28:20;;;;;;;0.98;0.20;;;;;;;8.19;81.03;98921.34;4994348;28;20053;-88
2023/12/13 01:30:48;;;;;;;1.25;0.10;;;;;;;8.12;81.54;98919.81;4991083;28;20056;-88
2023/12/13 01:33:15;;;;;;;2.03;0.30;;;;;;;7.99;82.50;98919.31;4990088;28;20130;-87
2023/12/13 01:35:42;;;;;;;4.25;0.38;;;;;;;8.03;82.52;98927.91;4993104;28;20060;-88
2023/12/13 01:38:09;;;;;;;3.20;0.60;;;;;;;8.04;82.29;98921.78;4968211;28;20057;-91
2023/12/13 01:40:36;;;;;;;1.33;0.30;;;;;;;8.04;82.04;98924.38;5001468;28;20050;-88
2023/12/13 01:43:03;;;;;;;1.48;0.30;;;;;;;7.99;82.20;98925.41;5004956;28;20050;-88
2023/12/13 01:45:30;;;;;;;1.27;0.10;;;;;;;7.99;82.42;98929.75;4978670;28;20083;-89
2023/12/13 01:47:57;;;;;;;1.08;0.38;;;;;;;7.88;83.44;98932.69;4994505;28;20046;-87
2023/12/13 01:50:24;;;;;;;3.65;0.35;;;;;;;7.96;83.32;98935.06;4949901;28;20053;-89
2023/12/13 01:52:53;;;;;;;1.20;0.30;;;;;;;7.97;82.93;98935.03;4980983;28;20049;-87
2023/12/13 01:55:20;;;;;;;0.73;0.22;;;;;;;7.87;84.02;98941.41;4978689;28;20052;-87
2023/12/13 01:57:47;;;;;;;2.25;0.35;;;;;;;7.85;84.27;98938.00;5000013;28;20096;-88
2023/12/13 02:00:15;;;;;;;2.15;0.25;;;;;;;7.82;84.42;98930.22;4978497;28;20061;-87
2023/12/13 02:02:42;;;;;;;1.38;0.43;;;;;;;7.64;85.66;98932.44;4965211;28;20113;-88
2023/12/13 02:05:11;;;;;;;2.60;0.57;;;;;;;7.42;87.25;98939.16;4996896;28;20052;-90
2023/12/13 02:07:38;;;;;;;1.38;0.57;;;;;;;7.25;88.57;98943.03;4984057;28;20447;-88
2023/12/13 02:10:06;;;;;;;1.10;0.40;;;;;;;7.17;89.19;98939.78;4994937;28;20061;-88
2023/12/13 02:12:34;;;;;;;1.00;0.30;;;;;;;7.06;89.88;98936.56;4993714;28;20487;-88
2023/12/13 02:15:00;;;;;;;1.10;0.38;;;;;;;7.11;89.97;98927.75;4958443;28;20046;-88
2023/12/13 02:17:27;;;;;;;1.95;0.40;;;;;;;7.11;90.23;98927.75;4973046;28;20053;-89
2023/12/13 02:19:54;;;;;;;0.57;0.43;;;;;;;7.11;90.01;98926.88;4999167;28;20112;-88
2023/12/13 02:22:21;;;;;;;2.20;0.50;;;;;;;7.10;89.90;98922.56;4978098;28;20058;-88
2023/12/13 02:24:49;;;;;;;2.13;0.35;;;;;;;7.10;90.01;98925.16;5000268;28;20046;-88
2023/12/13 02:27:16;;;;;;;0.88;0.35;;;;;;;7.08;90.22;98924.34;4969936;28;20049;-88
2023/12/13 02:29:47;;;;;;;0.73;0.50;;;;;;;6.97;90.36;98909.81;4988636;28;20104;-89
2023/12/13 02:32:14;;;;;;;0.55;0.20;;;;;;;6.89;90.49;98905.69;4977920;28;20080;-87
2023/12/13 02:34:41;;;;;;;0.57;0.20;;;;;;;6.89;90.32;98918.72;5001859;28;20056;-87
2023/12/13 02:37:08;;;;;;;2.05;0.20;;;;;;;6.87;90.69;98916.16;5002718;28;20550;-88
2023/12/13 02:39:35;;;;;;;4.28;0.40;;;;;;;6.82;90.50;98912.78;4996776;28;20050;-87
2023/12/13 02:42:02;;;;;;;1.75;0.30;;;;;;;6.87;90.56;98908.31;5004046;28;20050;-87
2023/12/13 02:44:29;;;;;;;3.45;0.30;;;;;;;6.82;90.98;98898.91;4980359;28;20054;-87
2023/12/13 02:46:58;;;;;;;1.52;0.32;;;;;;;6.80;90.81;98904.16;4979822;28;20045;-87
2023/12/13 02:49:24;;;;;;;0.63;0.30;;;;;;;6.74;90.76;98909.53;4963796;28;20112;-87
2023/12/13 02:51:51;;;;;;;0.57;0.15;;;;;;;6.66;90.87;98906.22;4986604;28;20046;-88
2023/12/13 02:54:18;;;;;;;0.70;0.20;;;;;;;6.61;90.88;98899.38;4996408;28;20053;-88
2023/12/13 02:56:45;;;;;;;5.35;0.98;;;;;;;6.61;91.22;98907.19;4994215;28;20054;-88
2023/12/13 02:59:12;;;;;;;1.55;0.57;;;;;;;6.65;91.13;98891.47;4973044;28;20145;-87
2023/12/13 03:01:39;;;;;;;2.45;0.30;;;;;;;6.55;91.18;98886.50;4977980;28;20049;-88
2023/12/13 03:04:05;;;;;;;1.42;0.30;;;;;;;6.54;91.16;98887.38;4998226;28;20054;-88
2023/12/13 03:06:33;;;;;;;1.17;0.30;;;;;;;6.52;91.18;98883.97;4988948;28;20049;-88
2023/12/13 03:09:00;;;;;;;2.13;0.75;;;;;;;6.48;91.22;98881.47;4998414;28;20065;-88
2023/12/13 03:11:27;;;;;;;0.30;0.20;;;;;;;6.52;91.41;98886.56;4981858;28;20508;-88
2023/12/13 03:13:54;;;;;;;1.02;0.22;;;;;;;6.55;91.21;98876.06;4982126;28;20056;-87
2023/12/13 03:16:21;;;;;;;0.20;0.20;;;;;;;6.52;91.37;98894.38;4982865;28;20053;-87
2023/12/13 03:18:50;;;;;;;2.45;0.28;;;;;;;6.52;91.47;98883.97;5004651;28;20050;-88
2023/12/13 03:21:17;;;;;;;0.30;0.20;;;;;;;6.53;91.67;98888.28;4998836;28;20480;-88
2023/12/13 03:23:44;;;;;;;0.65;0.38;;;;;;;6.56;91.88;98885.59;4994898;28;20046;-88
2023/12/13 03:26:11;;;;;;;1.05;0.43;;;;;;;6.58;91.85;98873.38;4999411;28;20072;-87
2023/12/13 03:28:38;;;;;;;2.88;0.47;;;;;;;6.56;91.84;98880.41;4994186;28;20053;-88
2023/12/13 03:31:08;;;;;;;1.35;0.70;;;;;;;6.54;92.11;98876.94;4999471;28;20077;-87
2023/12/13 03:33:36;;;;;;;1.23;0.50;;;;;;;6.59;91.96;98875.09;4970594;28;20495;-88
2023/12/13 03:36:03;;;;;;;0.80;0.40;;;;;;;6.60;91.93;98876.81;4994470;28;20077;-88
2023/12/13 03:38:29;;;;;;;2.35;0.43;;;;;;;6.60;91.96;98870.75;4992700;28;20058;-88
2023/12/13 03:40:56;;;;;;;2.47;0.45;;;;;;;6.58;91.92;98870.78;5001901;28;20052;-89
2023/12/13 03:43:23;;;;;;;2.13;0.55;;;;;;;6.59;91.98;98869.03;4994807;28;20042;-88
2023/12/13 03:45:50;;;;;;;1.42;0.50;;;;;;;6.55;92.04;98870.84;4999361;28;20073;-88
2023/12/13 03:48:16;;;;;;;2.42;0.40;;;;;;;6.57;92.34;98865.59;4980791;28;20057;-89
2023/12/13 03:50:43;;;;;;;1.70;0.43;;;;;;;6.55;92.50;98863.03;5004138;28;20457;-89
2023/12/13 03:53:10;;;;;;;0.98;0.40;;;;;;;6.52;92.48;98860.50;4995409;28;20128;-89
2023/12/13 03:55:37;;;;;;;0.32;0.28;;;;;;;6.55;92.41;98870.84;5001792;28;20129;-88
2023/12/13 03:58:04;;;;;;;0.70;0.35;;;;;;;6.56;92.59;98863.88;4998938;28;20049;-89
2023/12/13 04:00:31;;;;;;;3.50;0.40;;;;;;;6.57;92.74;98858.63;4991644;28;20053;-91
2023/12/13 04:02:58;;;;;;;1.23;0.32;;;;;;;6.55;92.82;98865.63;5009368;28;20054;-89
2023/12/13 04:05:26;;;;;;;0.63;0.50;;;;;;;6.57;93.05;98863.84;4988089;28;20123;-88
2023/12/13 04:07:53;;;;;;;1.75;0.43;;;;;;;6.55;93.06;98864.78;4998698;28;20045;-88
2023/12/13 04:10:19;;;;;;;3.75;0.50;;;;;;;6.56;93.05;98864.75;4989035;28;20054;-88
2023/12/13 04:12:46;;;;;;;1.42;0.63;;;;;;;6.57;93.14;98856.03;4996962;28;20046;-88
2023/12/13 04:15:13;;;;;;;2.72;0.40;;;;;;;6.57;93.13;98865.59;4974593;28;20053;-88
2023/12/13 04:17:40;;;;;;;1.23;0.60;;;;;;;6.54;93.02;98848.28;4994039;28;20052;-88
2023/12/13 04:20:07;;;;;;;0.63;0.50;;;;;;;6.56;92.97;98848.25;4995268;28;20050;-89
2023/12/13 04:22:34;;;;;;;0.70;0.52;;;;;;;6.55;93.06;98839.56;4991841;28;20050;-88
2023/12/13 04:25:01;;;;;;;9.05;4.03;;;;;;;6.54;92.92;98839.63;5001062;28;20096;-88
2023/12/13 04:27:28;;;;;;;12.20;6.60;;;;;;;6.53;92.92;98838.78;4980451;28;20042;-88
2023/12/13 04:29:55;;;;;;;20.02;8.80;;;;;;;6.51;92.78;98837.09;4977342;28;20053;-88
2023/12/13 04:32:22;;;;;;;19.83;7.93;;;;;;;6.46;93.02;98832.00;4982787;28;20103;-88
2023/12/13 04:34:48;;;;;;;27.95;10.90;;;;;;;6.44;92.98;98834.63;4993731;28;20457;-88
2023/12/13 04:37:15;;;;;;;30.20;11.65;;;;;;;6.43;92.93;98829.44;4993173;28;20041;-88
2023/12/13 04:39:42;;;;;;;28.17;9.57;;;;;;;6.40;93.29;98827.78;4987642;28;20128;-88
2023/12/13 04:42:09;;;;;;;41.90;15.45;;;;;;;6.40;93.22;98837.31;4987030;28;20064;-89
2023/12/13 04:44:36;;;;;;;19.20;6.90;;;;;;;6.37;93.22;98837.41;5003470;28;20115;-87
2023/12/13 04:47:03;;;;;;;1.63;0.88;;;;;;;6.33;93.49;98833.16;5002096;28;20061;-88
2023/12/13 04:49:31;;;;;;;1.60;0.30;;;;;;;6.31;93.24;98830.59;4985322;28;20053;-87
2023/12/13 04:51:58;;;;;;;1.55;0.30;;;;;;;6.29;93.23;98839.34;4993962;28;20046;-88
2023/12/13 04:54:25;;;;;;;2.08;0.50;;;;;;;6.32;93.18;98837.53;4967405;28;20048;-88
2023/12/13 04:56:51;;;;;;;0.70;0.40;;;;;;;6.35;93.58;98837.44;5006626;28;20060;-88
2023/12/13 04:59:18;;;;;;;2.17;0.52;;;;;;;6.32;93.34;98824.50;4989270;28;20047;-88
2023/12/13 05:01:45;;;;;;;2.15;0.47;;;;;;;6.29;93.49;98828.94;5005912;28;20053;-87
2023/12/13 05:04:12;;;;;;;3.03;0.60;;;;;;;6.25;93.23;98823.75;4998012;28;20056;-87
2023/12/13 05:06:39;;;;;;;1.88;0.30;;;;;;;6.25;93.45;98828.97;5002244;28;20136;-87
2023/12/13 05:09:07;;;;;;;2.40;0.38;;;;;;;6.23;93.53;98820.34;5002761;28;20057;-87
2023/12/13 05:11:34;;;;;;;1.45;0.40;;;;;;;6.24;93.36;98823.81;4993270;28;20056;-87
2023/12/13 05:14:01;;;;;;;0.45;0.30;;;;;;;6.21;93.25;98816.94;4995139;28;20046;-87
2023/12/13 05:16:27;;;;;;;0.68;0.32;;;;;;;6.07;93.39;98813.78;4983278;28;20313;-87
2023/12/13 05:18:54;;;;;;;2.85;0.40;;;;;;;6.09;93.58;98819.81;4987256;28;20073;-87
2023/12/13 05:21:21;;;;;;;1.10;0.43;;;;;;;5.98;93.52;98819.19;4997229;28;20416;-87
2023/12/13 05:23:48;;;;;;;1.65;0.40;;;;;;;5.99;93.45;98816.53;4988672;28;20045;-86
2023/12/13 05:26:15;;;;;;;0.82;0.40;;;;;;;6.00;93.77;98807.84;4994266;28;20054;-87
2023/12/13 05:28:42;;;;;;;1.98;0.50;;;;;;;5.99;93.61;98811.34;4994062;28;20054;-87
2023/12/13 05:31:29;;;;;;;3.58;0.40;;;;;;;6.04;93.93;98811.22;4996915;28;20082;-86
2023/12/13 05:37:36;;;;;;;1.35;0.30;;;;;;;6.06;93.77;98799.06;4992686;28;20057;-86
2023/12/13 05:40:04;;;;;;;0.60;0.38;;;;;;;5.97;94.04;98807.03;4990082;28;20056;-86
2023/12/13 05:42:33;;;;;;;0.93;0.45;;;;;;;5.89;93.50;98795.06;4999473;28;20052;-86
2023/12/13 05:45:00;;;;;;;2.75;0.50;;;;;;;5.88;93.55;98798.53;5005184;28;20052;-86
2023/12/13 05:47:27;;;;;;;0.52;0.30;;;;;;;5.79;93.91;98793.53;4997357;28;20045;-86
2023/12/13 05:49:54;;;;;;;3.08;0.55;;;;;;;5.81;93.41;98793.47;5000131;28;20052;-86
2023/12/13 05:52:21;;;;;;;2.85;0.50;;;;;;;5.81;93.33;98799.56;4999991;28;20053;-86
2023/12/13 05:54:48;;;;;;;3.42;0.55;;;;;;;5.70;93.10;98791.13;5011154;28;20057;-85
2023/12/13 05:57:15;;;;;;;0.93;0.43;;;;;;;5.69;93.13;98792.88;5002654;28;20050;-85
2023/12/13 05:59:42;;;;;;;0.95;0.40;;;;;;;5.61;92.58;98788.75;5006617;28;20041;-85
2023/12/13 06:02:08;;;;;;;0.40;0.30;;;;;;;5.61;93.05;98793.94;5005384;28;20049;-86
2023/12/13 06:04:35;;;;;;;0.88;0.50;;;;;;;5.63;92.91;98798.19;5003325;28;20069;-86
2023/12/13 06:07:02;;;;;;;1.77;0.40;;;;;;;5.61;93.37;98789.59;4992101;28;20054;-86
2023/12/13 06:09:29;;;;;;;1.48;0.47;;;;;;;5.70;93.40;98793.72;5001895;28;20051;-85
2023/12/13 06:11:56;;;;;;;1.17;0.43;;;;;;;5.71;93.49;98790.25;5005545;28;20064;-86
2023/12/13 06:14:23;;;;;;;6.20;0.63;;;;;;;5.67;93.49;98779.03;4996061;28;20059;-86
2023/12/13 06:16:49;;;;;;;0.98;0.40;;;;;;;5.58;92.94;98790.50;5009351;28;20050;-87
2023/12/13 06:19:16;;;;;;;1.02;0.40;;;;;;;5.54;93.18;98790.59;4997711;28;20115;-86
2023/12/13 06:21:43;;;;;;;1.15;0.50;;;;;;;5.53;93.27;98791.47;5006458;28;20057;-86
2023/12/13 06:24:10;;;;;;;2.50;0.65;;;;;;;5.49;93.21;98788.09;4996409;28;20046;-87
2023/12/13 06:26:37;;;;;;;2.70;0.50;;;;;;;5.57;93.12;98791.38;4989417;28;20504;-86
2023/12/13 06:29:04;;;;;;;0.65;0.30;;;;;;;5.53;93.35;98783.66;5002136;28;20046;-86
2023/12/13 06:31:30;;;;;;;0.60;0.32;;;;;;;5.51;93.55;98788.06;4986464;28;20052;-86
2023/12/13 06:34:01;;;;;;;8.57;0.65;;;;;;;5.46;93.53;98790.78;4999661;28;20042;-87
2023/12/13 06:36:28;;;;;;;0.93;0.50;;;;;;;5.43;93.31;98774.34;4969448;28;20054;-86
2023/12/13 06:38:54;;;;;;;1.02;0.52;;;;;;;5.65;93.75;98774.75;5003883;28;20047;-86
2023/12/13 06:41:21;;;;;;;2.83;0.73;;;;;;;5.51;93.46;98780.25;4996846;28;20049;-86
2023/12/13 06:43:48;;;;;;;2.60;0.80;;;;;;;5.52;93.67;98784.59;5007508;28;20054;-86
2023/12/13 06:46:15;;;;;;;0.50;0.50;;;;;;;5.51;93.74;98782.84;4986963;28;20053;-85
2023/12/13 06:48:42;;;;;;;2.05;0.80;;;;;;;5.53;94.05;98776.75;5005807;28;20042;-86
2023/12/13 06:51:09;;;;;;;4.40;0.70;;;;;;;5.65;94.03;98770.41;4978178;28;20119;-86
2023/12/13 06:53:39;;;;;;;2.13;0.75;;;;;;;5.56;94.10;98768.88;4982212;28;20052;-86
2023/12/13 06:56:06;;;;;;;2.63;1.00;;;;;;;5.47;94.16;98771.66;4986720;28;20050;-86
2023/12/13 06:58:34;;;;;;;2.72;0.90;;;;;;;5.44;93.93;98773.47;4998277;28;20042;-86
2023/12/13 07:01:01;;;;;;;3.03;1.10;;;;;;;5.49;94.26;98777.69;5006908;28;20049;-86
2023/12/13 07:03:28;;;;;;;2.40;0.90;;;;;;;5.49;94.50;98772.50;4998157;28;20054;-85
2023/12/13 07:05:55;;;;;;;1.90;0.60;;;;;;;5.49;94.58;98772.50;5007987;28;20041;-84
2023/12/13 07:08:22;;;;;;;3.40;0.80;;;;;;;5.43;94.59;98776.94;4983207;28;20080;-84
2023/12/13 07:10:48;;;;;;;4.80;0.85;;;;;;;5.44;94.62;98779.50;5009805;28;20045;-85
2023/12/13 07:13:15;;;;;;;3.70;0.82;;;;;;;5.44;94.71;98770.88;4988422;28;20141;-84
2023/12/13 07:15:42;;;;;;;5.45;1.35;;;;;;;5.47;94.73;98768.19;4999082;28;20069;-84
2023/12/13 07:18:09;;;;;;;3.22;1.20;;;;;;;5.49;94.84;98775.09;4996020;28;20046;-83
2023/12/13 07:20:36;;;;;;;2.67;0.90;;;;;;;5.51;94.98;98777.66;4997562;28;20054;-84
2023/12/13 07:23:05;;;;;;;1.30;1.00;;;;;;;5.58;95.05;98774.88;5014885;28;20059;-83
2023/12/13 07:25:32;;;;;;;4.47;1.42;;;;;;;5.58;95.64;98772.28;4989861;28;20048;-82
2023/12/13 07:27:59;;;;;;;3.03;0.88;;;;;;;5.64;95.58;98770.44;4977940;28;20053;-82
2023/12/13 07:30:26;;;;;;;1.83;0.90;;;;;;;5.67;95.52;98772.97;4975468;28;20050;-82
2023/12/13 07:32:53;;;;;;;1.95;1.00;;;;;;;5.70;95.78;98767.69;5007945;28;20061;-83
2023/12/13 07:35:20;;;;;;;1.90;0.70;;;;;;;5.74;95.63;98774.56;4989134;28;20042;-82
2023/12/13 07:37:48;;;;;;;3.92;1.20;;;;;;;5.78;95.64;98763.19;4994718;28;20061;-82
2023/12/13 07:40:15;;;;;;;5.78;1.20;;;;;;;5.79;95.85;98772.69;5000131;28;20157;-83
2023/12/13 07:42:42;;;;;;;1.23;1.00;;;;;;;5.80;95.74;98774.41;4983250;28;20057;-82
2023/12/13 07:45:13;;;;;;;2.03;1.00;;;;;;;5.84;95.81;98770.84;4975562;28;20050;-84
2023/12/13 07:47:40;;;;;;;3.22;1.08;;;;;;;5.87;95.99;98778.59;5008485;28;20049;-82
2023/12/13 07:50:07;;;;;;;2.03;1.13;;;;;;;5.99;96.10;98781.84;5002346;28;20061;-82
2023/12/13 07:52:34;;;;;;;2.25;1.08;;;;;;;6.02;96.00;98784.38;4985659;28;20116;-82
2023/12/13 07:55:02;;;;;;;5.25;1.10;;;;;;;6.02;95.85;98779.19;4993924;28;20163;-82
2023/12/13 07:57:29;;;;;;;4.68;1.27;;;;;;;6.02;95.73;98784.38;5001530;28;20242;-83
2023/12/13 07:59:56;;;;;;;3.88;1.73;;;;;;;6.00;95.83;98779.22;4987350;28;20046;-82
2023/12/13 08:02:24;;;;;;;3.42;1.10;;;;;;;6.05;95.66;98785.19;4997322;28;20113;-83
2023/12/13 08:04:58;;;;;;;2.17;1.10;;;;;;;6.06;96.03;98786.88;4984627;28;20085;-82
2023/12/13 08:07:25;;;;;;;1.95;0.98;;;;;;;6.11;95.78;98786.75;5006962;28;20128;-82
2023/12/13 08:09:53;;;;;;;2.60;0.70;;;;;;;6.13;96.03;98774.56;5002612;28;20046;-82
2023/12/13 08:12:20;;;;;;;2.72;1.00;;;;;;;6.19;95.84;98771.81;5001935;28;20056;-83
2023/12/13 08:14:47;;;;;;;2.58;1.00;;;;;;;6.22;95.89;98758.72;4997307;28;20056;-83
2023/12/13 08:17:14;;;;;;;2.28;0.98;;;;;;;6.25;95.95;98768.22;4988819;28;20053;-84
2023/12/13 08:19:42;;;;;;;3.05;0.93;;;;;;;6.24;95.91;98769.97;5002881;28;20047;-83
2023/12/13 08:22:09;;;;;;;3.03;1.13;;;;;;;6.23;95.60;98773.47;5002512;28;20062;-83
2023/12/13 08:24:36;;;;;;;4.10;0.90;;;;;;;6.18;95.70;98769.25;4975156;28;20062;-83
2023/12/13 08:27:03;;;;;;;1.60;1.10;;;;;;;6.13;95.66;98765.91;5003799;28;20136;-83
2023/12/13 08:29:30;;;;;;;2.47;0.93;;;;;;;6.18;95.64;98775.31;4995305;28;20050;-81
2023/12/13 08:31:57;;;;;;;1.92;1.23;;;;;;;6.22;95.55;98778.72;4994167;28;20057;-82
2023/12/13 08:34:24;;;;;;;2.30;1.00;;;;;;;6.29;95.33;98782.03;4996557;28;20077;-82
2023/12/13 08:36:51;;;;;;;3.38;1.52;;;;;;;6.28;95.48;98775.94;5008976;28;20092;-81
2023/12/13 08:39:18;;;;;;;3.17;1.08;;;;;;;6.39;95.11;98780.91;4981602;28;20146;-82
2023/12/13 08:41:44;;;;;;;2.67;0.93;;;;;;;6.52;95.23;98779.72;4999699;28;20432;-81
2023/12/13 08:44:11;;;;;;;2.40;1.10;;;;;;;6.61;95.17;98784.69;4998478;28;20061;-82
2023/12/13 08:46:38;;;;;;;1.30;1.05;;;;;;;6.67;95.24;98772.41;5744490;23;20025;-82
2023/12/13 08:49:05;;;;;;;2.08;0.90;;;;;;;6.71;94.94;98774.88;4956820;28;20059;-82
2023/12/13 08:51:32;;;;;;;3.72;0.98;;;;;;;6.72;94.74;98775.72;4972968;28;20130;-82
2023/12/13 08:53:59;;;;;;;4.07;1.33;;;;;;;6.81;94.76;98780.72;4982771;28;20061;-82
2023/12/13 08:56:25;;;;;;;3.97;0.98;;;;;;;6.86;94.43;98773.63;4993462;28;20133;-81
2023/12/13 08:58:53;;;;;;;0.98;0.70;;;;;;;6.85;94.26;98777.16;4975282;28;20054;-84
2023/12/13 09:01:26;;;;;;;1.65;0.60;;;;;;;6.81;94.03;98765.06;4980786;28;20101;-85
2023/12/13 09:03:56;;;;;;;1.52;0.52;;;;;;;6.84;93.93;98772.81;4956622;28;20043;-84
2023/12/13 09:06:24;;;;;;;3.30;1.00;;;;;;;6.91;94.03;98771.75;4979373;28;20063;-83
2023/12/13 09:08:53;;;;;;;2.33;1.02;;;;;;;6.92;93.99;98770.00;4962868;28;20046;-83
2023/12/13 09:11:21;;;;;;;3.33;1.30;;;;;;;6.90;93.75;98763.97;4979957;28;20054;-84
2023/12/13 09:13:54;;;;;;;2.47;0.80;;;;;;;6.85;93.63;98771.94;4962296;28;20051;-84
2023/12/13 09:16:24;;;;;;;1.30;0.82;;;;;;;7.00;93.64;98772.41;4974650;28;20512;-85
2023/12/13 09:18:52;;;;;;;2.03;0.80;;;;;;;7.00;93.49;98775.88;4958474;28;20054;-84
2023/12/13 09:21:22;;;;;;;2.92;1.00;;;;;;;7.04;93.21;98776.63;4970086;28;20059;-82
2023/12/13 09:23:49;;;;;;;3.20;0.77;;;;;;;7.05;93.48;98773.13;4975620;28;20145;-83
2023/12/13 09:26:17;;;;;;;2.63;1.17;;;;;;;7.10;93.40;98777.31;4974647;28;20050;-83
2023/12/13 09:28:46;;;;;;;0.80;0.80;;;;;;;7.22;93.20;98786.56;4972191;28;20074;-85
2023/12/13 09:31:16;;;;;;;2.47;1.10;;;;;;;7.27;93.10;98774.25;4972745;28;20130;-84
2023/12/13 09:33:44;;;;;;;1.25;0.68;;;;;;;7.30;92.88;98779.38;4975206;28;20054;-84
2023/12/13 09:36:13;;;;;;;1.23;0.68;;;;;;;7.32;92.72;98782.78;4956385;28;20085;-84
2023/12/13 09:38:43;;;;;;;0.90;0.60;;;;;;;7.39;92.37;98777.41;4974657;28;20051;-84
2023/12/13 09:41:13;;;;;;;1.05;0.60;;;;;;;7.65;92.46;98777.50;4955346;28;20050;-84
2023/12/13 09:43:44;;;;;;;1.70;0.70;;;;;;;7.72;91.98;98779.91;4956236;28;20050;-85
2023/12/13 09:46:13;;;;;;;2.80;1.23;;;;;;;7.77;91.49;98778.03;4949076;28;20063;-85
2023/12/13 09:48:42;;;;;;;1.30;0.52;;;;;;;7.73;91.03;98784.25;4954447;28;20047;-84
2023/12/13 09:51:11;;;;;;;1.55;0.80;;;;;;;7.78;90.66;98774.53;4908110;29;20052;-85
2023/12/13 09:53:40;;;;;;;2.13;0.88;;;;;;;7.94;90.43;98786.22;4912450;28;20062;-86
2023/12/13 09:56:08;;;;;;;0.40;0.40;;;;;;;7.91;90.18;98781.09;4925692;29;20047;-86
2023/12/13 09:58:43;;;;;;;0.90;0.45;;;;;;;8.01;89.79;98777.28;4914541;28;20048;-85
2023/12/13 10:01:12;;;;;;;4.22;0.50;;;;;;;8.11;88.67;98782.22;4926790;29;20058;-85
2023/12/13 10:03:40;;;;;;;0.82;0.80;;;;;;;8.03;88.92;98784.22;4918892;29;20514;-86
2023/12/13 10:06:10;;;;;;;0.70;0.38;;;;;;;7.92;88.69;98787.16;4932025;28;20071;-85
2023/12/13 10:08:37;;;;;;;2.30;0.57;;;;;;;7.93;89.11;98788.88;4891370;29;20071;-85
2023/12/13 10:11:06;;;;;;;0.80;0.80;;;;;;;8.03;89.02;98786.84;4922532;28;20103;-85
2023/12/13 10:13:34;;;;;;;0.30;0.28;;;;;;;8.01;89.05;98785.13;4915504;28;20058;-85
2023/12/13 10:16:14;;;;;;;0.93;0.40;;;;;;;8.04;88.82;98780.69;4928501;28;20051;-86
2023/12/13 10:18:42;;;;;;;1.00;0.73;;;;;;;8.12;89.12;98773.47;4916659;29;20107;-85
2023/12/13 10:21:11;;;;;;;2.90;0.50;;;;;;;8.17;89.04;98771.59;4906949;29;20056;-86
2023/12/13 10:23:41;;;;;;;2.42;0.73;;;;;;;8.24;88.78;98770.50;4917333;28;20059;-86
2023/12/13 10:26:09;;;;;;;1.27;0.50;;;;;;;8.47;88.54;98774.13;4913602;29;20095;-86
2023/12/13 10:28:37;;;;;;;1.40;0.60;;;;;;;8.70;87.36;98763.78;4896709;29;20053;-83
2023/12/13 10:31:05;;;;;;;1.08;0.50;;;;;;;8.78;86.86;98757.44;4906506;29;20148;-83
2023/12/13 10:33:34;;;;;;;6.65;0.50;;;;;;;8.69;86.27;98753.38;4915417;29;20047;-83
2023/12/13 10:36:03;;;;;;;1.85;0.60;;;;;;;8.64;86.21;98752.66;4907489;29;20090;-84
2023/12/13 10:38:31;;;;;;;1.95;0.20;;;;;;;8.70;85.70;98748.09;4902222;29;20051;-84
2023/12/13 10:41:01;;;;;;;1.52;0.40;;;;;;;8.77;85.85;98753.09;4924827;29;20060;-83
2023/12/13 10:43:31;;;;;;;1.90;0.50;;;;;;;9.14;86.64;98743.91;4920222;29;20054;-84
2023/12/13 10:46:00;;;;;;;3.55;0.40;;;;;;;9.30;85.12;98757.31;4907988;29;20052;-84
2023/12/13 10:48:36;;;;;;;1.05;0.43;;;;;;;9.39;84.20;98747.34;4905027;29;20047;-85
2023/12/13 10:51:04;;;;;;;0.50;0.30;;;;;;;9.44;84.50;98746.34;4922316;28;20056;-85
2023/12/13 10:53:32;;;;;;;0.60;0.40;;;;;;;9.42;84.32;98756.03;4919176;28;20103;-85
2023/12/13 10:56:00;;;;;;;1.48;0.47;;;;;;;9.19;83.17;98757.72;4899386;29;20139;-86
2023/12/13 10:58:28;;;;;;;1.45;0.45;;;;;;;9.18;83.67;98761.22;4932027;28;20102;-87
2023/12/13 11:00:57;;;;;;;4.57;0.50;;;;;;;9.03;83.62;98763.47;4928798;28;20084;-86
2023/12/13 11:03:57;;;;;;;1.83;0.57;;;;;;;9.01;83.96;98761.84;4913565;28;20044;-86
2023/12/13 11:06:26;;;;;;;0.77;0.40;;;;;;;9.02;84.21;98767.03;4900025;29;20051;-86
2023/12/13 11:08:54;;;;;;;6.28;0.73;;;;;;;8.96;84.25;98763.75;4927239;28;20068;-85
2023/12/13 11:11:27;;;;;;;1.90;0.47;;;;;;;8.97;82.78;98758.47;4911803;28;20043;-85
2023/12/13 11:13:54;;;;;;;0.93;0.40;;;;;;;9.21;82.65;98758.50;4929915;28;20051;-85
2023/12/13 11:16:24;;;;;;;1.20;0.40;;;;;;;9.28;82.02;98759.13;4887506;29;20052;-84
2023/12/13 11:18:53;;;;;;;1.77;0.40;;;;;;;9.30;82.17;98760.78;4898810;29;20047;-86
2023/12/13 11:21:26;;;;;;;1.40;0.40;;;;;;;9.34;81.96;98757.16;4923151;28;20059;-85
2023/12/13 11:24:00;;;;;;;2.58;0.50;;;;;;;9.40;81.03;98749.06;4920202;28;20539;-85
2023/12/13 11:26:27;;;;;;;3.90;0.75;;;;;;;9.51;81.21;98753.06;4893395;29;20040;-85
2023/12/13 11:28:56;;;;;;;2.20;0.50;;;;;;;9.46;79.13;98749.72;4923759;28;20333;-85
2023/12/13 11:31:26;;;;;;;3.88;0.40;;;;;;;9.46;79.51;98750.59;4913478;28;20135;-86
2023/12/13 11:33:55;;;;;;;1.23;0.60;;;;;;;9.42;79.48;98754.25;4927191;28;20051;-87
2023/12/13 11:36:24;;;;;;;1.10;0.32;;;;;;;9.57;78.67;98752.81;4899880;28;20069;-88
2023/12/13 11:38:55;;;;;;;0.63;0.25;;;;;;;9.60;77.69;98752.69;4921875;28;20055;-85
2023/12/13 11:41:24;;;;;;;2.83;0.35;;;;;;;9.72;77.56;98754.84;4900243;29;20063;-87
2023/12/13 11:43:51;;;;;;;1.17;0.90;;;;;;;9.77;77.87;98753.84;4919719;28;20048;-86
2023/12/13 11:46:19;;;;;;;1.60;0.50;;;;;;;9.59;77.26;98753.63;4916405;28;20130;-87
2023/12/13 11:48:47;;;;;;;1.35;0.68;;;;;;;9.50;75.81;98746.09;4904973;29;20066;-86